createdAt,value
2023-04-02T00:00:45.678Z,53.01
2023-04-02T00:01:45.724Z,47.37
2023-04-02T00:02:45.701Z,46.08
2023-04-02T00:03:45.769Z,49.79
2023-04-02T00:04:45.675Z,50.27
2023-04-02T00:05:45.678Z,49.15
2023-04-02T00:06:45.696Z,50.92
2023-04-02T00:07:45.666Z,51.56
2023-04-02T00:08:45.647Z,49.15
2023-04-02T00:09:45.638Z,47.70
2023-04-02T00:10:45.622Z,53.66
2023-04-02T00:11:45.647Z,48.66
2023-04-02T00:12:45.609Z,50.11
2023-04-02T00:13:45.642Z,50.76
2023-04-02T00:14:45.582Z,52.21
2023-04-02T00:15:45.605Z,50.43
2023-04-02T00:16:45.637Z,49.79
2023-04-02T00:17:45.584Z,45.76
2023-04-02T00:18:45.566Z,47.05
2023-04-02T00:19:45.586Z,49.79
2023-04-02T00:20:45.549Z,51.24
2023-04-02T00:21:45.602Z,49.31
2023-04-02T00:22:45.537Z,50.92
2023-04-02T00:23:45.547Z,51.24
2023-04-02T00:24:45.526Z,52.69
2023-04-02T00:25:45.691Z,47.21
2023-04-02T00:26:45.547Z,48.82
2023-04-02T00:27:45.536Z,52.37
2023-04-02T00:28:45.517Z,50.27
2023-04-02T00:29:45.511Z,51.88
2023-04-02T00:30:45.489Z,51.88
2023-04-02T00:31:45.575Z,49.79
2023-04-02T00:32:45.524Z,48.34
2023-04-02T00:33:45.504Z,47.86
2023-04-02T00:34:45.454Z,50.60
2023-04-02T00:35:45.499Z,47.21
2023-04-02T00:36:45.489Z,46.57
2023-04-02T00:37:45.461Z,50.11
2023-04-02T00:38:46.822Z,53.33
2023-04-02T00:39:45.450Z,49.63
2023-04-02T00:40:45.426Z,50.92
2023-04-02T00:41:45.431Z,50.76
2023-04-02T00:42:45.411Z,50.76
2023-04-02T00:43:45.403Z,48.98
2023-04-02T00:44:45.427Z,48.66
2023-04-02T00:45:45.447Z,52.21
2023-04-02T00:46:45.374Z,52.05
2023-04-02T00:47:45.440Z,50.60
2023-04-02T00:48:45.370Z,54.14
2023-04-02T00:49:45.371Z,52.69
2023-04-02T00:50:45.344Z,50.43
2023-04-02T00:51:45.360Z,54.14
2023-04-02T00:52:45.366Z,50.60
2023-04-02T00:53:45.347Z,51.72
2023-04-02T00:54:45.338Z,50.92
2023-04-02T00:55:45.346Z,49.79
2023-04-02T00:56:45.321Z,49.63
2023-04-02T00:57:45.344Z,52.69
2023-04-02T00:58:45.310Z,52.21
2023-04-02T00:59:45.319Z,52.05
2023-04-02T01:00:45.346Z,52.05
2023-04-02T01:01:45.345Z,53.17
2023-04-02T01:02:45.357Z,53.17
2023-04-02T01:03:45.400Z,52.85
2023-04-02T01:04:45.285Z,54.95
2023-04-02T01:05:45.311Z,52.85
2023-04-02T01:06:45.255Z,53.50
2023-04-02T01:07:45.252Z,50.43
2023-04-02T01:08:45.261Z,49.15
2023-04-02T01:09:45.261Z,48.82
2023-04-02T01:10:45.236Z,50.27
2023-04-02T01:11:45.261Z,51.40
2023-04-02T01:12:45.221Z,52.53
2023-04-02T01:13:45.224Z,56.40
2023-04-02T01:14:45.233Z,53.50
2023-04-02T01:15:45.247Z,48.50
2023-04-02T01:16:45.198Z,50.27
2023-04-02T01:17:45.299Z,52.37
2023-04-02T01:18:45.204Z,53.33
2023-04-02T01:19:45.279Z,52.05
2023-04-02T01:20:45.157Z,49.63
2023-04-02T01:21:45.179Z,50.92
2023-04-02T01:22:45.148Z,47.53
2023-04-02T01:23:45.158Z,48.98
2023-04-02T01:24:45.156Z,51.40
2023-04-02T01:25:45.191Z,51.72
2023-04-02T01:26:45.145Z,50.11
2023-04-02T01:27:45.166Z,52.21
2023-04-02T01:28:45.160Z,49.63
2023-04-02T01:29:45.143Z,51.56
2023-04-02T01:30:45.117Z,53.17
2023-04-02T01:31:45.401Z,53.66
2023-04-02T01:32:45.126Z,48.66
2023-04-02T01:33:45.126Z,48.34
2023-04-02T01:34:45.089Z,50.60
2023-04-02T01:35:45.114Z,55.11
2023-04-02T01:36:45.093Z,52.53
2023-04-02T01:37:45.103Z,53.50
2023-04-02T01:38:45.110Z,52.05
2023-04-02T01:39:45.101Z,48.18
2023-04-02T01:40:45.071Z,52.69
2023-04-02T01:41:45.073Z,52.05
2023-04-02T01:42:45.044Z,49.95
2023-04-02T01:43:45.060Z,50.11
2023-04-02T01:44:45.056Z,50.27
2023-04-02T01:45:45.081Z,50.43
2023-04-02T01:46:45.112Z,51.24
2023-04-02T01:47:45.061Z,49.47
2023-04-02T01:48:45.026Z,48.82
2023-04-02T01:49:45.023Z,51.40
2023-04-02T01:50:45.004Z,53.98
2023-04-02T01:51:45.036Z,51.40
2023-04-02T01:52:44.991Z,54.62
2023-04-02T01:53:45.008Z,53.66
2023-04-02T01:54:44.992Z,51.08
2023-04-02T01:55:45.000Z,53.33
2023-04-02T01:56:44.971Z,55.11
2023-04-02T01:57:45.001Z,54.46
2023-04-02T01:58:44.958Z,52.85
2023-04-02T01:59:45.004Z,52.37
2023-04-02T02:00:44.999Z,49.95
2023-04-02T02:01:44.977Z,50.27
2023-04-02T02:02:44.999Z,50.43
2023-04-02T02:03:44.981Z,52.05
2023-04-02T02:04:44.929Z,51.56
2023-04-02T02:05:44.940Z,51.08
2023-04-02T02:06:44.922Z,50.92
2023-04-02T02:07:44.923Z,50.76
2023-04-02T02:08:44.929Z,52.53
2023-04-02T02:09:44.933Z,50.11
2023-04-02T02:10:44.906Z,49.63
2023-04-02T02:11:44.918Z,50.60
2023-04-02T02:12:44.893Z,49.15
2023-04-02T02:13:44.908Z,50.60
2023-04-02T02:14:44.925Z,50.60
2023-04-02T02:15:44.889Z,51.40
2023-04-02T02:16:44.939Z,52.53
2023-04-02T02:17:44.949Z,52.21
2023-04-02T02:18:44.859Z,54.14
2023-04-02T02:19:44.896Z,53.33
2023-04-02T02:20:44.847Z,54.62
2023-04-02T02:21:44.868Z,52.69
2023-04-02T02:22:44.843Z,52.53
2023-04-02T02:23:44.847Z,52.05
2023-04-02T02:24:44.841Z,51.72
2023-04-02T02:25:44.862Z,53.17
2023-04-02T02:26:44.827Z,54.46
2023-04-02T02:27:44.833Z,54.95
2023-04-02T02:28:44.811Z,53.01
2023-04-02T02:29:44.821Z,52.53
2023-04-02T02:30:44.803Z,52.21
2023-04-02T02:31:44.885Z,49.95
2023-04-02T02:32:44.824Z,51.40
2023-04-02T02:33:44.795Z,51.56
2023-04-02T02:34:44.769Z,54.14
2023-04-02T02:35:44.801Z,52.21
2023-04-02T02:36:44.774Z,50.27
2023-04-02T02:37:44.773Z,52.05
2023-04-02T02:38:44.760Z,50.92
2023-04-02T02:39:44.761Z,50.92
2023-04-02T02:40:44.733Z,52.21
2023-04-02T02:41:44.777Z,53.50
2023-04-02T02:42:44.752Z,54.30
2023-04-02T02:43:44.749Z,55.75
2023-04-02T02:44:44.714Z,52.69
2023-04-02T02:45:44.752Z,52.85
2023-04-02T02:46:44.712Z,51.56
2023-04-02T02:47:44.775Z,52.05
2023-04-02T02:48:44.689Z,52.69
2023-04-02T02:49:44.712Z,56.07
2023-04-02T02:50:44.703Z,53.33
2023-04-02T02:51:44.707Z,52.85
2023-04-02T02:52:44.703Z,53.82
2023-04-02T02:53:44.704Z,53.33
2023-04-02T02:54:44.661Z,55.27
2023-04-02T02:55:44.666Z,51.56
2023-04-02T02:56:44.676Z,52.85
2023-04-02T02:57:44.666Z,52.69
2023-04-02T02:58:44.650Z,53.50
2023-04-02T02:59:44.652Z,54.95
2023-04-02T03:00:44.625Z,53.82
2023-04-02T03:01:44.712Z,54.79
2023-04-02T03:02:44.817Z,53.50
2023-04-02T03:03:45.070Z,53.98
2023-04-02T03:04:44.603Z,55.27
2023-04-02T03:05:44.613Z,55.11
2023-04-02T03:06:44.592Z,56.72
2023-04-02T03:07:44.600Z,55.59
2023-04-02T03:08:44.599Z,54.14
2023-04-02T03:09:44.599Z,56.40
2023-04-02T03:10:44.564Z,56.24
2023-04-02T03:11:44.600Z,57.85
2023-04-02T03:12:44.573Z,58.01
2023-04-02T03:13:44.578Z,54.79
2023-04-02T03:14:44.618Z,54.95
2023-04-02T03:15:44.591Z,55.27
2023-04-02T03:16:44.531Z,53.50
2023-04-02T03:17:44.575Z,52.37
2023-04-02T03:18:44.529Z,53.01
2023-04-02T03:19:44.541Z,53.33
2023-04-02T03:20:44.527Z,57.52
2023-04-02T03:21:44.524Z,53.66
2023-04-02T03:22:44.517Z,53.50
2023-04-02T03:23:44.533Z,52.21
2023-04-02T03:24:44.509Z,53.50
2023-04-02T03:25:44.508Z,54.30
2023-04-02T03:26:44.483Z,52.05
2023-04-02T03:27:44.518Z,52.53
2023-04-02T03:28:44.475Z,51.88
2023-04-02T03:29:44.509Z,51.88
2023-04-02T03:30:44.489Z,52.21
2023-04-02T03:31:44.565Z,55.43
2023-04-02T03:32:44.490Z,52.85
2023-04-02T03:33:44.460Z,52.05
2023-04-02T03:34:44.442Z,54.46
2023-04-02T03:35:44.467Z,53.82
2023-04-02T03:36:44.427Z,54.95
2023-04-02T03:37:44.473Z,55.27
2023-04-02T03:38:44.425Z,53.82
2023-04-02T03:39:44.462Z,55.43
2023-04-02T03:40:44.408Z,54.95
2023-04-02T03:41:44.441Z,57.69
2023-04-02T03:42:44.409Z,55.75
2023-04-02T03:43:44.408Z,53.01
2023-04-02T03:44:44.400Z,54.79
2023-04-02T03:45:44.419Z,53.66
2023-04-02T03:46:44.493Z,57.36
2023-04-02T03:47:44.457Z,54.62
2023-04-02T03:48:44.370Z,51.40
2023-04-02T03:49:44.418Z,54.95
2023-04-02T03:50:44.371Z,53.98
2023-04-02T03:51:44.393Z,55.11
2023-04-02T03:52:44.354Z,56.24
2023-04-02T03:53:44.383Z,55.59
2023-04-02T03:54:53.967Z,56.07
2023-04-02T03:55:45.369Z,54.62
2023-04-02T03:56:44.345Z,56.07
2023-04-02T03:57:44.364Z,54.79
2023-04-02T03:58:44.321Z,50.60
2023-04-02T03:59:44.352Z,52.53
2023-04-02T04:00:44.316Z,55.75
2023-04-02T04:01:44.361Z,54.46
2023-04-02T04:02:44.365Z,53.66
2023-04-02T04:03:44.384Z,57.20
2023-04-02T04:04:44.292Z,55.11
2023-04-02T04:05:44.303Z,54.79
2023-04-02T04:06:44.285Z,55.91
2023-04-02T04:07:44.322Z,53.66
2023-04-02T04:08:44.266Z,54.14
2023-04-02T04:09:44.283Z,53.66
2023-04-02T04:10:44.298Z,53.17
2023-04-02T04:11:44.270Z,53.33
2023-04-02T04:12:44.237Z,53.50
2023-04-02T04:13:44.292Z,52.37
2023-04-02T04:14:45.372Z,55.91
2023-04-02T04:15:44.247Z,56.88
2023-04-02T04:16:44.250Z,55.59
2023-04-02T04:17:44.254Z,56.24
2023-04-02T04:18:44.218Z,55.43
2023-04-02T04:19:44.246Z,56.07
2023-04-02T04:20:44.202Z,56.56
2023-04-02T04:21:44.218Z,56.72
2023-04-02T04:22:44.195Z,56.88
2023-04-02T04:23:44.208Z,55.27
2023-04-02T04:24:44.195Z,56.07
2023-04-02T04:25:44.185Z,58.81
2023-04-02T04:26:44.182Z,58.01
2023-04-02T04:27:44.202Z,56.56
2023-04-02T04:28:44.170Z,57.85
2023-04-02T04:29:44.197Z,57.04
2023-04-02T04:30:44.170Z,57.20
2023-04-02T04:31:44.186Z,58.17
2023-04-02T04:32:44.170Z,58.01
2023-04-02T04:33:44.178Z,58.81
2023-04-02T04:34:44.124Z,57.85
2023-04-02T04:35:44.185Z,53.50
2023-04-02T04:36:44.119Z,56.24
2023-04-02T04:37:44.122Z,53.50
2023-04-02T04:38:44.123Z,57.69
2023-04-02T04:39:44.137Z,56.56
2023-04-02T04:40:44.113Z,56.56
2023-04-02T04:41:44.128Z,56.07
2023-04-02T04:42:44.103Z,56.24
2023-04-02T04:43:44.102Z,55.59
2023-04-02T04:44:44.074Z,56.72
2023-04-02T04:45:44.135Z,55.59
2023-04-02T04:46:44.084Z,58.49
2023-04-02T04:47:44.106Z,55.59
2023-04-02T04:48:44.057Z,55.43
2023-04-02T04:49:44.055Z,56.07
2023-04-02T04:50:44.068Z,59.78
2023-04-02T04:51:44.082Z,52.69
2023-04-02T04:52:44.047Z,55.59
2023-04-02T04:53:44.040Z,54.79
2023-04-02T04:54:44.030Z,55.27
2023-04-02T04:55:44.068Z,55.11
2023-04-02T04:56:44.029Z,57.20
2023-04-02T04:57:44.032Z,55.75
2023-04-02T04:58:43.997Z,53.66
2023-04-02T04:59:44.023Z,55.59
2023-04-02T05:00:44.000Z,59.30
2023-04-02T05:01:44.054Z,59.94
2023-04-02T05:02:44.024Z,58.65
2023-04-02T05:03:43.983Z,55.59
2023-04-02T05:04:44.042Z,57.20
2023-04-02T05:05:43.989Z,57.20
2023-04-02T05:06:43.962Z,55.43
2023-04-02T05:07:43.969Z,53.98
2023-04-02T05:08:43.958Z,54.79
2023-04-02T05:09:43.984Z,54.62
2023-04-02T05:10:43.955Z,55.59
2023-04-02T05:11:43.954Z,56.40
2023-04-02T05:12:43.932Z,55.91
2023-04-02T05:13:43.928Z,55.91
2023-04-02T05:14:43.923Z,53.98
2023-04-02T05:15:43.992Z,56.56
2023-04-02T05:16:43.906Z,56.72
2023-04-02T05:17:43.981Z,56.56
2023-04-02T05:18:43.890Z,56.24
2023-04-02T05:19:43.917Z,54.46
2023-04-02T05:20:43.874Z,56.72
2023-04-02T05:21:43.895Z,55.75
2023-04-02T05:22:43.885Z,56.56
2023-04-02T05:23:43.920Z,56.40
2023-04-02T05:24:43.860Z,55.11
2023-04-02T05:25:43.864Z,53.82
2023-04-02T05:26:43.855Z,53.98
2023-04-02T05:27:43.875Z,57.20
2023-04-02T05:28:43.833Z,55.11
2023-04-02T05:29:43.865Z,56.88
2023-04-02T05:30:43.828Z,57.20
2023-04-02T05:31:43.891Z,58.49
2023-04-02T05:32:43.857Z,55.43
2023-04-02T05:33:43.826Z,56.24
2023-04-02T05:34:43.811Z,56.56
2023-04-02T05:35:43.854Z,58.65
2023-04-02T05:36:43.821Z,57.36
2023-04-02T05:37:43.814Z,57.69
2023-04-02T05:38:43.788Z,56.07
2023-04-02T05:39:43.788Z,54.62
2023-04-02T05:40:43.786Z,57.20
2023-04-02T05:41:43.791Z,56.88
2023-04-02T05:42:43.767Z,56.88
2023-04-02T05:43:43.774Z,56.24
2023-04-02T05:44:43.756Z,57.36
2023-04-02T05:45:43.783Z,58.97
2023-04-02T05:46:43.810Z,58.01
2023-04-02T05:47:43.789Z,58.81
2023-04-02T05:48:43.768Z,56.88
2023-04-02T05:49:43.737Z,54.95
2023-04-02T05:50:43.729Z,56.88
2023-04-02T05:51:43.726Z,56.07
2023-04-02T05:52:43.696Z,57.04
2023-04-02T05:53:43.726Z,57.69
2023-04-02T05:54:43.714Z,58.17
2023-04-02T05:55:43.705Z,58.01
2023-04-02T05:56:43.679Z,55.43
2023-04-02T05:57:52.867Z,56.24
2023-04-02T05:58:45.632Z,59.46
2023-04-02T05:59:43.671Z,56.72
2023-04-02T06:00:43.678Z,58.01
2023-04-02T06:01:43.710Z,57.04
2023-04-02T06:02:43.714Z,59.46
2023-04-02T06:03:43.771Z,54.62
2023-04-02T06:04:43.646Z,58.33
2023-04-02T06:05:43.650Z,57.20
2023-04-02T06:06:43.649Z,55.59
2023-04-02T06:07:43.636Z,57.04
2023-04-02T06:08:43.621Z,56.88
2023-04-02T06:09:43.621Z,56.07
2023-04-02T06:10:43.609Z,58.17
2023-04-02T06:11:43.620Z,56.07
2023-04-02T06:12:43.627Z,58.33
2023-04-02T06:13:43.634Z,57.85
2023-04-02T06:14:43.625Z,59.78
2023-04-02T06:15:44.500Z,57.20
2023-04-02T06:16:43.625Z,59.78
2023-04-02T06:17:43.613Z,56.07
2023-04-02T06:18:43.566Z,58.33
2023-04-02T06:19:43.589Z,60.42
2023-04-02T06:20:43.561Z,59.30
2023-04-02T06:21:43.566Z,59.46
2023-04-02T06:22:43.539Z,55.43
2023-04-02T06:23:43.553Z,57.20
2023-04-02T06:24:43.552Z,58.49
2023-04-02T06:25:43.534Z,60.59
2023-04-02T06:26:43.519Z,59.94
2023-04-02T06:27:43.536Z,58.97
2023-04-02T06:28:43.512Z,60.59
2023-04-02T06:29:43.536Z,58.97
2023-04-02T06:30:43.566Z,57.69
2023-04-02T06:31:43.517Z,58.01
2023-04-02T06:32:43.523Z,58.97
2023-04-02T06:33:43.502Z,57.52
2023-04-02T06:34:43.484Z,59.30
2023-04-02T06:35:43.587Z,58.81
2023-04-02T06:36:43.465Z,60.59
2023-04-02T06:37:43.485Z,57.52
2023-04-02T06:38:43.462Z,58.81
2023-04-02T06:39:43.469Z,59.46
2023-04-02T06:40:43.446Z,60.10
2023-04-02T06:41:43.481Z,58.81
2023-04-02T06:42:43.435Z,59.62
2023-04-02T06:43:43.454Z,58.33
2023-04-02T06:44:43.446Z,58.49
2023-04-02T06:45:43.481Z,58.97
2023-04-02T06:46:43.450Z,58.81
2023-04-02T06:47:43.483Z,59.14
2023-04-02T06:48:43.410Z,59.14
2023-04-02T06:49:43.426Z,59.14
2023-04-02T06:50:43.420Z,57.52
2023-04-02T06:51:43.416Z,58.01
2023-04-02T06:52:43.389Z,60.10
2023-04-02T06:53:43.408Z,56.24
2023-04-02T06:54:43.425Z,57.20
2023-04-02T06:55:43.427Z,59.30
2023-04-02T06:56:43.367Z,60.10
2023-04-02T06:57:43.402Z,58.81
2023-04-02T06:58:43.363Z,59.14
2023-04-02T06:59:43.365Z,58.81
2023-04-02T07:00:43.370Z,59.78
2023-04-02T07:01:43.401Z,57.69
2023-04-02T07:02:43.385Z,58.33
2023-04-02T07:03:43.351Z,60.10
2023-04-02T07:04:43.323Z,58.49
2023-04-02T07:05:43.357Z,60.42
2023-04-02T07:06:43.358Z,59.30
2023-04-02T07:07:43.320Z,59.14
2023-04-02T07:08:43.315Z,59.30
2023-04-02T07:09:43.309Z,59.94
2023-04-02T07:10:43.290Z,59.30
2023-04-02T07:11:43.305Z,56.56
2023-04-02T07:12:43.289Z,58.81
2023-04-02T07:13:43.299Z,59.94
2023-04-02T07:14:43.286Z,59.78
2023-04-02T07:15:43.302Z,60.42
2023-04-02T07:16:43.276Z,60.91
2023-04-02T07:17:43.367Z,58.01
2023-04-02T07:18:43.244Z,60.26
2023-04-02T07:19:43.253Z,59.78
2023-04-02T07:20:43.239Z,59.78
2023-04-02T07:21:43.243Z,60.26
2023-04-02T07:22:43.213Z,60.26
2023-04-02T07:23:43.268Z,60.10
2023-04-02T07:24:43.199Z,61.39
2023-04-02T07:25:43.262Z,62.04
2023-04-02T07:26:43.234Z,60.75
2023-04-02T07:27:43.209Z,60.75
2023-04-02T07:28:43.208Z,60.91
2023-04-02T07:29:43.207Z,60.59
2023-04-02T07:30:43.194Z,61.07
2023-04-02T07:31:43.235Z,60.26
2023-04-02T07:32:43.227Z,61.23
2023-04-02T07:33:43.208Z,60.10
2023-04-02T07:34:43.170Z,60.10
2023-04-02T07:35:43.202Z,60.75
2023-04-02T07:36:43.156Z,60.26
2023-04-02T07:37:43.160Z,61.07
2023-04-02T07:38:43.140Z,59.94
2023-04-02T07:39:43.202Z,61.71
2023-04-02T07:40:43.126Z,58.81
2023-04-02T07:41:43.145Z,60.91
2023-04-02T07:42:43.129Z,57.52
2023-04-02T07:43:43.137Z,60.91
2023-04-02T07:44:43.126Z,61.07
2023-04-02T07:45:43.129Z,60.59
2023-04-02T07:46:43.149Z,60.91
2023-04-02T07:47:43.165Z,59.78
2023-04-02T07:48:43.100Z,59.46
2023-04-02T07:49:43.107Z,59.78
2023-04-02T07:50:43.085Z,60.75
2023-04-02T07:51:43.093Z,61.71
2023-04-02T07:52:43.075Z,61.39
2023-04-02T07:53:43.074Z,60.75
2023-04-02T07:54:43.079Z,60.10
2023-04-02T07:55:43.089Z,62.04
2023-04-02T07:56:43.067Z,60.42
2023-04-02T07:57:45.655Z,60.91
2023-04-02T07:58:43.074Z,61.55
2023-04-02T07:59:43.061Z,60.26
2023-04-02T08:00:43.044Z,62.20
2023-04-02T08:01:43.335Z,62.52
2023-04-02T08:02:43.096Z,59.62
2023-04-02T08:03:43.100Z,62.52
2023-04-02T08:04:43.025Z,59.78
2023-04-02T08:05:43.029Z,60.75
2023-04-02T08:06:43.021Z,63.16
2023-04-02T08:07:43.032Z,62.84
2023-04-02T08:08:42.989Z,61.87
2023-04-02T08:09:43.004Z,60.75
2023-04-02T08:10:42.991Z,60.75
2023-04-02T08:11:42.995Z,60.59
2023-04-02T08:12:42.988Z,58.49
2023-04-02T08:13:43.014Z,60.91
2023-04-02T08:14:42.962Z,59.46
2023-04-02T08:15:42.994Z,60.59
2023-04-02T08:16:42.969Z,60.59
2023-04-02T08:17:43.023Z,61.71
2023-04-02T08:18:42.947Z,61.87
2023-04-02T08:19:54.101Z,61.23
2023-04-02T08:20:43.955Z,60.75
2023-04-02T08:21:42.953Z,60.26
2023-04-02T08:22:42.922Z,60.91
2023-04-02T08:23:42.974Z,61.07
2023-04-02T08:24:42.928Z,59.78
2023-04-02T08:25:42.924Z,61.71
2023-04-02T08:26:45.423Z,60.75
2023-04-02T08:27:42.923Z,62.36
2023-04-02T08:28:42.924Z,61.71
2023-04-02T08:29:42.924Z,60.91
2023-04-02T08:30:42.898Z,63.65
2023-04-02T08:31:42.890Z,63.81
2023-04-02T08:32:42.882Z,60.91
2023-04-02T08:33:42.915Z,60.10
2023-04-02T08:34:42.902Z,62.36
2023-04-02T08:35:42.905Z,61.23
2023-04-02T08:36:42.858Z,62.52
2023-04-02T08:37:42.849Z,62.52
2023-04-02T08:38:42.862Z,61.71
2023-04-02T08:39:42.835Z,60.91
2023-04-02T08:40:42.847Z,61.39
2023-04-02T08:41:42.849Z,62.04
2023-04-02T08:42:42.825Z,61.23
2023-04-02T08:43:42.850Z,62.04
2023-04-02T08:44:42.844Z,62.52
2023-04-02T08:45:43.013Z,59.78
2023-04-02T08:46:42.800Z,62.68
2023-04-02T08:47:42.855Z,60.42
2023-04-02T08:48:42.815Z,62.20
2023-04-02T08:49:42.812Z,61.39
2023-04-02T08:50:42.811Z,63.00
2023-04-02T08:51:42.783Z,62.84
2023-04-02T08:52:42.763Z,63.33
2023-04-02T08:53:42.799Z,63.33
2023-04-02T08:54:42.814Z,63.00
2023-04-02T08:55:42.799Z,61.87
2023-04-02T08:56:42.736Z,63.33
2023-04-02T08:57:42.745Z,61.55
2023-04-02T08:58:42.734Z,62.36
2023-04-02T08:59:42.739Z,63.16
2023-04-02T09:00:42.726Z,62.36
2023-04-02T09:01:42.816Z,63.33
2023-04-02T09:02:42.750Z,61.23
2023-04-02T09:03:42.752Z,62.84
2023-04-02T09:04:42.747Z,63.33
2023-04-02T09:05:42.730Z,64.78
2023-04-02T09:06:42.736Z,62.68
2023-04-02T09:07:42.699Z,63.33
2023-04-02T09:08:42.694Z,62.84
2023-04-02T09:09:42.689Z,61.55
2023-04-02T09:10:42.703Z,62.36
2023-04-02T09:11:42.678Z,61.55
2023-04-02T09:12:42.663Z,63.00
2023-04-02T09:13:42.678Z,61.55
2023-04-02T09:14:42.663Z,61.71
2023-04-02T09:15:42.717Z,64.78
2023-04-02T09:16:42.663Z,62.36
2023-04-02T09:17:52.899Z,64.29
2023-04-02T09:18:43.634Z,61.23
2023-04-02T09:19:42.640Z,62.68
2023-04-02T09:20:42.622Z,63.81
2023-04-02T09:21:42.652Z,63.65
2023-04-02T09:22:42.637Z,63.16
2023-04-02T09:23:42.632Z,63.33
2023-04-02T09:24:42.612Z,63.97
2023-04-02T09:25:43.395Z,62.68
2023-04-02T09:26:42.596Z,64.61
2023-04-02T09:27:42.639Z,63.16
2023-04-02T09:28:42.584Z,62.36
2023-04-02T09:29:42.583Z,62.20
2023-04-02T09:30:42.580Z,63.97
2023-04-02T09:31:42.633Z,63.16
2023-04-02T09:32:42.575Z,63.16
2023-04-02T09:33:42.631Z,64.61
2023-04-02T09:34:42.543Z,64.61
2023-04-02T09:35:42.731Z,65.10
2023-04-02T09:36:42.524Z,63.16
2023-04-02T09:37:42.565Z,63.33
2023-04-02T09:38:42.545Z,63.49
2023-04-02T09:39:42.561Z,65.26
2023-04-02T09:40:42.567Z,62.04
2023-04-02T09:41:43.743Z,64.13
2023-04-02T09:42:42.519Z,63.65
2023-04-02T09:43:42.505Z,63.81
2023-04-02T09:44:42.486Z,65.74
2023-04-02T09:45:42.515Z,65.10
2023-04-02T09:46:42.520Z,64.29
2023-04-02T09:47:42.671Z,64.29
2023-04-02T09:48:42.474Z,64.78
2023-04-02T09:49:42.501Z,64.29
2023-04-02T09:50:42.488Z,63.65
2023-04-02T09:51:42.501Z,64.29
2023-04-02T09:52:42.439Z,65.26
2023-04-02T09:53:42.794Z,62.68
2023-04-02T09:54:42.470Z,64.61
2023-04-02T09:55:42.488Z,65.42
2023-04-02T09:56:42.438Z,63.33
2023-04-02T09:57:42.438Z,64.78
2023-04-02T09:58:42.416Z,63.00
2023-04-02T09:59:42.455Z,62.20
2023-04-02T10:00:42.467Z,61.23
2023-04-02T10:01:42.558Z,64.45
2023-04-02T10:02:42.417Z,64.78
2023-04-02T10:03:42.413Z,64.29
2023-04-02T10:04:42.505Z,65.58
2023-04-02T10:05:42.659Z,63.33
2023-04-02T10:06:42.381Z,63.65
2023-04-02T10:07:42.401Z,61.71
2023-04-02T10:08:42.373Z,65.42
2023-04-02T10:09:42.384Z,64.29
2023-04-02T10:10:42.398Z,63.81
2023-04-02T10:11:46.764Z,63.16
2023-04-02T10:12:42.346Z,63.65
2023-04-02T10:13:42.358Z,62.84
2023-04-02T10:14:42.352Z,64.13
2023-04-02T10:15:42.382Z,64.13
2023-04-02T10:16:42.439Z,63.81
2023-04-02T10:17:42.388Z,62.84
2023-04-02T10:18:42.310Z,63.97
2023-04-02T10:19:42.322Z,63.00
2023-04-02T10:20:51.001Z,64.29
2023-04-02T10:21:43.359Z,62.84
2023-04-02T10:22:42.332Z,63.97
2023-04-02T10:23:42.332Z,64.45
2023-04-02T10:24:42.306Z,64.45
2023-04-02T10:25:42.290Z,62.52
2023-04-02T10:26:42.270Z,62.52
2023-04-02T10:27:42.298Z,63.16
2023-04-02T10:28:42.312Z,64.13
2023-04-02T10:29:42.295Z,63.97
2023-04-02T10:30:42.314Z,62.84
2023-04-02T10:31:42.262Z,63.65
2023-04-02T10:32:42.319Z,63.65
2023-04-02T10:33:42.256Z,62.52
2023-04-02T10:34:43.147Z,62.04
2023-04-02T10:35:42.257Z,61.39
2023-04-02T10:36:42.246Z,63.49
2023-04-02T10:37:42.253Z,63.00
2023-04-02T10:38:42.243Z,63.65
2023-04-02T10:39:42.225Z,63.65
2023-04-02T10:40:42.276Z,62.68
2023-04-02T10:41:42.248Z,62.68
2023-04-02T10:42:42.205Z,63.65
2023-04-02T10:43:42.211Z,63.65
2023-04-02T10:44:42.197Z,65.90
2023-04-02T10:45:42.274Z,64.94
2023-04-02T10:46:42.293Z,64.45
2023-04-02T10:47:42.258Z,63.49
2023-04-02T10:48:42.177Z,63.65
2023-04-02T10:49:42.241Z,64.13
2023-04-02T10:50:42.180Z,63.16
2023-04-02T10:51:42.195Z,62.36
2023-04-02T10:52:42.163Z,62.68
2023-04-02T10:53:42.160Z,64.45
2023-04-02T10:54:42.163Z,64.94
2023-04-02T10:55:42.149Z,65.42
2023-04-02T10:56:50.648Z,65.42
2023-04-02T10:57:43.317Z,65.10
2023-04-02T10:58:42.140Z,64.78
2023-04-02T10:59:42.132Z,63.16
2023-04-02T11:00:42.133Z,64.13
2023-04-02T11:01:42.186Z,63.33
2023-04-02T11:02:42.110Z,63.97
2023-04-02T11:03:42.263Z,64.78
2023-04-02T11:04:42.094Z,64.78
2023-04-02T11:05:42.094Z,63.49
2023-04-02T11:06:42.084Z,63.00
2023-04-02T11:07:42.112Z,62.04
2023-04-02T11:08:42.110Z,62.68
2023-04-02T11:09:42.087Z,64.13
2023-04-02T11:10:42.073Z,63.33
2023-04-02T11:11:42.063Z,62.52
2023-04-02T11:12:42.295Z,63.00
2023-04-02T11:13:42.084Z,64.13
2023-04-02T11:14:42.036Z,63.97
2023-04-02T11:15:42.090Z,61.71
2023-04-02T11:16:44.199Z,61.87
2023-04-02T11:17:42.078Z,62.84
2023-04-02T11:18:42.038Z,63.49
2023-04-02T11:19:42.038Z,63.97
2023-04-02T11:20:42.042Z,63.81
2023-04-02T11:21:54.982Z,63.97
2023-04-02T11:22:42.989Z,63.81
2023-04-02T11:23:42.023Z,63.65
2023-04-02T11:24:42.030Z,60.59
2023-04-02T11:25:42.014Z,63.00
2023-04-02T11:26:42.028Z,62.52
2023-04-02T11:27:41.989Z,62.36
2023-04-02T11:28:41.998Z,62.36
2023-04-02T11:29:41.997Z,63.33
2023-04-02T11:30:41.954Z,63.00
2023-04-02T11:31:42.000Z,62.20
2023-04-02T11:32:41.989Z,62.04
2023-04-02T11:33:44.756Z,62.84
2023-04-02T11:34:41.972Z,63.49
2023-04-02T11:35:42.017Z,61.23
2023-04-02T11:36:41.922Z,66.06
2023-04-02T11:37:42.016Z,63.49
2023-04-02T11:38:41.931Z,63.16
2023-04-02T11:39:41.921Z,63.81
2023-04-02T11:40:41.917Z,64.78
2023-04-02T11:41:41.934Z,64.13
2023-04-02T11:42:41.906Z,63.49
2023-04-02T11:43:41.961Z,63.33
2023-04-02T11:44:41.912Z,64.29
2023-04-02T11:45:50.278Z,65.42
2023-04-02T11:46:42.905Z,64.29
2023-04-02T11:47:41.973Z,65.42
2023-04-02T11:48:41.888Z,62.84
2023-04-02T11:49:41.888Z,61.71
2023-04-02T11:50:41.889Z,65.42
2023-04-02T11:51:41.909Z,64.13
2023-04-02T11:52:41.931Z,63.00
2023-04-02T11:53:41.877Z,64.78
2023-04-02T11:54:41.859Z,64.94
2023-04-02T11:55:41.902Z,64.61
2023-04-02T11:56:41.833Z,63.33
2023-04-02T11:57:41.909Z,63.49
2023-04-02T11:58:48.853Z,63.81
2023-04-02T11:59:41.851Z,63.49
2023-04-02T12:00:41.809Z,61.87
2023-04-02T12:01:41.843Z,63.49
2023-04-02T12:02:41.891Z,63.65
2023-04-02T12:03:41.784Z,64.13
2023-04-02T12:04:41.783Z,63.49
2023-04-02T12:05:41.957Z,63.81
2023-04-02T12:06:41.783Z,63.65
2023-04-02T12:07:41.770Z,62.52
2023-04-02T12:08:54.301Z,63.16
2023-04-02T12:09:42.781Z,62.52
2023-04-02T12:10:41.768Z,62.04
2023-04-02T12:11:41.823Z,62.68
2023-04-02T12:12:41.750Z,63.00
2023-04-02T12:13:41.763Z,62.36
2023-04-02T12:14:41.757Z,65.58
2023-04-02T12:15:41.748Z,63.65
2023-04-02T12:16:41.818Z,63.49
2023-04-02T12:17:41.743Z,63.81
2023-04-02T12:18:41.704Z,62.36
2023-04-02T12:19:41.763Z,61.39
2023-04-02T12:20:41.695Z,63.49
2023-04-02T12:21:41.738Z,63.81
2023-04-02T12:22:41.692Z,63.49
2023-04-02T12:23:41.694Z,62.36
2023-04-02T12:24:41.696Z,63.33
2023-04-02T12:25:41.688Z,66.06
2023-04-02T12:26:41.660Z,63.00
2023-04-02T12:27:41.687Z,62.84
2023-04-02T12:28:41.684Z,64.94
2023-04-02T12:29:41.674Z,63.16
2023-04-02T12:30:41.740Z,61.55
2023-04-02T12:31:41.662Z,59.46
2023-04-02T12:32:41.721Z,62.36
2023-04-02T12:33:41.643Z,63.49
2023-04-02T12:34:41.669Z,64.61
2023-04-02T12:35:41.700Z,63.33
2023-04-02T12:36:41.638Z,62.84
2023-04-02T12:37:41.626Z,63.49
2023-04-02T12:38:41.617Z,63.65
2023-04-02T12:39:41.650Z,64.78
2023-04-02T12:40:41.652Z,64.13
2023-04-02T12:41:41.607Z,63.16
2023-04-02T12:42:41.594Z,64.29
2023-04-02T12:43:41.646Z,61.07
2023-04-02T12:44:41.590Z,60.59
2023-04-02T12:45:41.615Z,62.52
2023-04-02T12:46:41.638Z,61.71
2023-04-02T12:47:41.607Z,61.87
2023-04-02T12:48:41.555Z,62.68
2023-04-02T12:49:41.590Z,61.71
2023-04-02T12:50:41.543Z,63.33
2023-04-02T12:51:41.552Z,62.20
2023-04-02T12:52:41.536Z,60.26